Aeroporto :
LOGIN :

Iscrizione | Disclaimer

   EN    FR    IT 

 










Sommario :    VFR   VFR Marginale   IFR   IFR Intensivo   IFR Molto Intensivo
Visibilità : 
Base nubi : 
>= 8 km
>= 3000ft
5 / 8 km
1000 / 3000 ft
1500m / 5 km
500 / 1000 ft
800 / 1500m
200 / 500 ft
< 800m
< 200 ft
Simboli :   Temporali  Nebbia  Neve Forte  Precipitazioni Forti  Vento > 20 kt
SIGMETs :   Varie  Temporali  Ghiacco  Turbolenza  Onda orograficha  Ceneri Vulcaniche






- Altitudine del aeroporto : 18 ft
- Codice IATA : AJA


LFKJ - Ajaccio

ULTIMO METAR :
  • 130900Z AUTO 32014KT 9999 FEW042 BKN050 OVC060 15/04 Q1002 NOSIG

METARs OBSOLETI :
  • 130830Z AUTO 31013KT 270V350 9999 FEW039 SCT047 OVC058 14/04 Q1001 NOSIG
  • 130800Z AUTO 04003KT 360V080 9999 FEW042 OVC054 10/07 Q1001 BECMG 28012KT
  • 130730Z AUTO VRB03KT 9999 FEW046 OVC056 09/07 Q1001 NOSIG
  • 130700Z AUTO 05006KT 9999 OVC052 08/06 Q1001 BECMG 28012KT

TAF TAF LFKJ
Valido dal 13 a 09 ore il 14 a 09 ore UTC


130800Z 1309/1409 30012KT 9999 FEW040
TEMPO 1309/1313 30010G20KT
BECMG 1317/1319 05005KT
ATIS : +33 4 95 23 59 85



MetMap, La meteo Aeronautica in un colpo d'occhio ! - Copyright ORBIFLY Dicembre 2007 - Disclaimer

ORBIFLY MET'MAP TEAM :

Programmazione e sviluppo : Alexandra Zaïnal
Concezione e sviluppo : Baudouin d'Aumeries
Co-Programmazione e sviluppo : Marc-Olivier Méhu
Supporto tecnico e logistico : Manuel Goepfert
Aiuto per la traduzione : Arnaldo La Scala

Contatto : metmap@orbifly.com




FONTI E CREDITI :

   NOAA